Time;durP1;ratioP1;P1;durP2;ratioP2;P2;SDS_P1;SDS_P2;PMS_P1;PMS_P2;Temp;Humidity;BMP_temperature;BMP_pressure;BME280_temperature;BME280_humidity;BME280_pressure;Samples;Min_cycle;Max_cycle;Signal;HPM_P1;HPM_P2
2022/05/19 00:01:20;;;;;;;39.65;21.77;;;;;;;;;;5020695;28;20030;-74
2022/05/19 00:03:45;;;;;;;44.50;22.77;;;;;;;;;;5022570;28;20464;-74
2022/05/19 00:06:11;;;;;;;39.60;22.48;;;;;;;;;;5019694;28;20068;-74
2022/05/19 00:08:37;;;;;;;36.72;20.92;;;;;;;;;;5019134;28;20033;-74
2022/05/19 00:11:05;;;;;;;38.33;21.25;;;;;;;;;;5016034;28;20030;-74
2022/05/19 00:13:30;;;;;;;39.38;21.73;;;;;;;;;;5020382;28;20028;-74
2022/05/19 00:15:56;;;;;;;40.22;22.38;;;;;;;;;;5021437;28;20022;-74
2022/05/19 00:18:21;;;;;;;40.65;22.83;;;;;;;;;;5018867;28;20033;-74
2022/05/19 00:20:46;;;;;;;40.00;21.10;;;;;;;;;;5017435;28;20030;-74
2022/05/19 00:23:12;;;;;;;41.57;20.50;;;;;;;;;;5021553;28;20022;-73
2022/05/19 00:25:37;;;;;;;38.33;22.05;;;;;;;;;;5020125;28;20506;-74
2022/05/19 00:28:02;;;;;;;35.73;21.07;;;;;;;;;;5018800;28;20148;-74
2022/05/19 00:30:28;;;;;;;40.63;22.50;;;;;;;;;;5022262;28;20342;-74
2022/05/19 00:32:53;;;;;;;39.50;22.70;;;;;;;;;;5023221;28;20121;-74
2022/05/19 00:35:18;;;;;;;39.53;22.10;;;;;;;;;;5022686;28;20258;-74
2022/05/19 00:37:43;;;;;;;43.10;22.70;;;;;;;;;;5017510;28;20626;-74
2022/05/19 00:40:09;;;;;;;34.40;20.27;;;;;;;;;;5020514;28;20800;-74
2022/05/19 00:42:43;;;;;;;36.90;21.45;;;;;;;;;;5023327;28;20021;-73
2022/05/19 00:45:09;;;;;;;36.08;21.42;;;;;;;;;;5017735;28;20485;-74
2022/05/19 00:47:52;;;;;;;40.90;22.80;;;;;;;;;;5024768;28;20033;-73
2022/05/19 00:50:20;;;;;;;39.47;21.92;;;;;;;;;;5024522;28;20026;-74
2022/05/19 00:52:45;;;;;;;46.38;23.48;;;;;;;;;;5023773;28;20025;-74
2022/05/19 00:55:14;;;;;;;45.85;23.20;;;;;;;;;;5020135;28;20080;-73
2022/05/19 00:57:52;;;;;;;44.83;24.05;;;;;;;;;;5016194;28;20582;-74
2022/05/19 01:00:19;;;;;;;48.55;25.08;;;;;;;;;;5020880;28;20029;-74
2022/05/19 01:02:47;;;;;;;45.38;23.38;;;;;;;;;;5024580;28;20033;-74
2022/05/19 01:05:13;;;;;;;50.50;25.10;;;;;;;;;;5025393;28;20029;-73
2022/05/19 01:07:46;;;;;;;43.10;25.05;;;;;;;;;;5019924;28;20037;-76
2022/05/19 01:10:11;;;;;;;44.88;25.23;;;;;;;;;;5018937;28;20053;-76
2022/05/19 01:12:38;;;;;;;49.65;25.73;;;;;;;;;;5022476;28;20191;-76
2022/05/19 01:15:03;;;;;;;45.88;25.42;;;;;;;;;;5021358;28;20495;-76
2022/05/19 01:17:28;;;;;;;46.70;26.38;;;;;;;;;;5020201;28;20037;-77
2022/05/19 01:19:58;;;;;;;45.13;26.40;;;;;;;;;;5020803;28;20037;-76
2022/05/19 01:22:48;;;;;;;51.45;27.60;;;;;;;;;;5021270;28;20021;-76
2022/05/19 01:25:32;;;;;;;47.20;27.33;;;;;;;;;;5022033;28;20361;-75
2022/05/19 01:27:57;;;;;;;49.67;27.77;;;;;;;;;;5019842;28;20421;-75
2022/05/19 01:30:23;;;;;;;52.92;27.45;;;;;;;;;;5021741;28;20096;-77
2022/05/19 01:32:48;;;;;;;54.45;27.55;;;;;;;;;;5022652;28;20036;-77
2022/05/19 01:35:13;;;;;;;47.65;25.55;;;;;;;;;;5015162;28;20460;-76
2022/05/19 01:37:38;;;;;;;49.43;24.90;;;;;;;;;;5020383;28;20111;-76
2022/05/19 01:40:14;;;;;;;56.03;29.20;;;;;;;;;;5020212;28;20038;-76
2022/05/19 01:43:06;;;;;;;53.65;27.27;;;;;;;;;;5018564;28;20266;-76
2022/05/19 01:45:49;;;;;;;51.00;27.83;;;;;;;;;;5016542;28;20534;-75
2022/05/19 01:48:17;;;;;;;48.03;27.00;;;;;;;;;;5020599;28;20032;-76
2022/05/19 01:50:59;;;;;;;50.63;28.77;;;;;;;;;;5019319;28;20033;-76
2022/05/19 01:53:34;;;;;;;54.72;30.85;;;;;;;;;;5019382;28;20071;-76
2022/05/19 01:56:13;;;;;;;57.03;29.45;;;;;;;;;;5019375;28;20029;-77
2022/05/19 01:59:02;;;;;;;56.30;32.20;;;;;;;;;;5021704;28;20104;-76
2022/05/19 02:01:27;;;;;;;53.28;29.60;;;;;;;;;;5025028;28;20227;-75
2022/05/19 02:04:04;;;;;;;62.70;34.20;;;;;;;;;;5029035;28;20025;-76
2022/05/19 02:06:40;;;;;;;60.05;31.70;;;;;;;;;;5021084;28;20022;-77
2022/05/19 02:09:07;;;;;;;58.08;31.00;;;;;;;;;;5026294;28;20099;-76
2022/05/19 02:11:39;;;;;;;54.45;32.75;;;;;;;;;;5012171;28;20030;-76
2022/05/19 02:14:07;;;;;;;57.53;32.13;;;;;;;;;;5023700;28;20112;-76
2022/05/19 02:16:33;;;;;;;60.08;32.38;;;;;;;;;;5021501;28;20400;-77
2022/05/19 02:18:58;;;;;;;61.03;34.92;;;;;;;;;;5024409;28;20033;-75
2022/05/19 02:21:24;;;;;;;60.27;32.57;;;;;;;;;;5009336;28;20026;-75
2022/05/19 02:23:49;;;;;;;66.40;35.45;;;;;;;;;;5038922;23;20240;-76
2022/05/19 02:26:14;;;;;;;62.28;31.67;;;;;;;;;;5003115;28;20243;-77
2022/05/19 02:28:45;;;;;;;59.90;33.43;;;;;;;;;;5005482;28;20042;-74
2022/05/19 02:31:11;;;;;;;52.65;30.65;;;;;;;;;;5008360;28;20084;-76
2022/05/19 02:33:36;;;;;;;52.10;29.92;;;;;;;;;;5004984;28;20034;-75
2022/05/19 02:36:03;;;;;;;51.60;28.75;;;;;;;;;;5006255;28;20022;-75
2022/05/19 02:38:28;;;;;;;54.58;29.75;;;;;;;;;;5003093;28;20029;-76
2022/05/19 02:40:53;;;;;;;58.17;33.13;;;;;;;;;;5001168;28;20089;-75
2022/05/19 02:43:18;;;;;;;57.30;30.60;;;;;;;;;;5000815;28;20270;-74
2022/05/19 02:45:45;;;;;;;50.40;30.42;;;;;;;;;;5003695;28;20419;-75
2022/05/19 02:48:11;;;;;;;61.50;31.38;;;;;;;;;;4999360;28;20500;-75
2022/05/19 02:50:37;;;;;;;54.88;32.55;;;;;;;;;;5006235;28;20474;-76
2022/05/19 02:53:03;;;;;;;53.60;31.65;;;;;;;;;;5004477;28;20125;-75
2022/05/19 02:55:28;;;;;;;55.78;31.75;;;;;;;;;;4997593;28;20118;-77
2022/05/19 02:57:53;;;;;;;59.03;31.33;;;;;;;;;;5006746;28;20135;-75
2022/05/19 03:00:20;;;;;;;50.75;31.38;;;;;;;;;;4998074;28;20339;-76
2022/05/19 03:02:45;;;;;;;58.65;31.10;;;;;;;;;;4999189;28;20053;-76
2022/05/19 03:05:12;;;;;;;57.20;33.05;;;;;;;;;;5000580;28;20464;-76
2022/05/19 03:07:37;;;;;;;57.17;29.90;;;;;;;;;;5006056;28;20061;-77
2022/05/19 03:10:03;;;;;;;58.27;32.97;;;;;;;;;;5011865;28;20057;-75
2022/05/19 03:12:28;;;;;;;52.38;29.70;;;;;;;;;;5002425;28;20049;-76
2022/05/19 03:14:54;;;;;;;59.03;29.70;;;;;;;;;;5000851;28;20034;-77
2022/05/19 03:17:20;;;;;;;48.22;28.33;;;;;;;;;;5003357;28;20041;-75
2022/05/19 03:19:45;;;;;;;46.93;28.60;;;;;;;;;;4998475;28;20022;-76
2022/05/19 03:22:10;;;;;;;48.13;27.83;;;;;;;;;;5022145;28;20262;-76
2022/05/19 03:24:36;;;;;;;46.42;30.35;;;;;;;;;;5001962;28;20076;-72
2022/05/19 03:27:01;;;;;;;50.92;27.58;;;;;;;;;;5003559;28;20022;-76
2022/05/19 03:29:26;;;;;;;41.87;23.63;;;;;;;;;;5005187;28;20022;-74
2022/05/19 03:31:52;;;;;;;42.63;24.27;;;;;;;;;;5004452;28;20264;-76
2022/05/19 03:34:17;;;;;;;27.57;18.03;;;;;;;;;;4997894;28;20022;-74
2022/05/19 03:36:45;;;;;;;36.53;19.95;;;;;;;;;;5007519;28;20259;-73
2022/05/19 03:39:11;;;;;;;36.38;19.80;;;;;;;;;;5001407;28;20383;-74
2022/05/19 03:41:36;;;;;;;30.08;20.23;;;;;;;;;;4997026;28;20030;-75
2022/05/19 03:44:01;;;;;;;31.90;19.30;;;;;;;;;;4998934;28;20038;-74
2022/05/19 03:46:26;;;;;;;29.77;18.70;;;;;;;;;;5000438;28;20060;-72
2022/05/19 03:48:52;;;;;;;27.27;17.92;;;;;;;;;;5002173;28;20046;-75
2022/05/19 03:51:20;;;;;;;29.02;18.23;;;;;;;;;;5007948;28;20026;-75
2022/05/19 03:53:45;;;;;;;28.60;19.48;;;;;;;;;;5009499;28;20017;-75
2022/05/19 03:56:10;;;;;;;31.52;18.25;;;;;;;;;;5005441;28;20022;-75
2022/05/19 03:58:36;;;;;;;30.40;18.10;;;;;;;;;;5010050;28;20129;-76
2022/05/19 04:01:01;;;;;;;28.20;19.83;;;;;;;;;;5014259;28;20014;-72
2022/05/19 04:03:26;;;;;;;31.90;19.60;;;;;;;;;;5004659;28;20037;-74
2022/05/19 04:05:51;;;;;;;26.07;17.70;;;;;;;;;;5004235;28;20887;-74
2022/05/19 04:08:16;;;;;;;25.43;18.17;;;;;;;;;;5003976;28;20060;-74
2022/05/19 04:10:42;;;;;;;30.13;17.07;;;;;;;;;;5002250;28;20603;-74
2022/05/19 04:13:08;;;;;;;25.52;15.27;;;;;;;;;;4998971;28;20320;-74
2022/05/19 04:15:34;;;;;;;25.70;15.07;;;;;;;;;;5000507;28;20026;-74
2022/05/19 04:17:59;;;;;;;21.93;13.33;;;;;;;;;;5001067;28;20026;-73
2022/05/19 04:20:29;;;;;;;19.48;12.73;;;;;;;;;;4998393;28;20272;-74
2022/05/19 04:22:55;;;;;;;25.08;14.15;;;;;;;;;;5001476;28;20022;-74
2022/05/19 04:25:20;;;;;;;19.02;13.48;;;;;;;;;;5001161;28;20047;-74
2022/05/19 04:27:45;;;;;;;23.40;15.67;;;;;;;;;;5002486;28;20138;-74
2022/05/19 04:30:10;;;;;;;25.38;13.55;;;;;;;;;;5004693;28;20358;-74
2022/05/19 04:32:35;;;;;;;24.52;13.63;;;;;;;;;;5002041;28;20038;-74
2022/05/19 04:35:01;;;;;;;26.00;14.47;;;;;;;;;;5005185;28;20033;-75
2022/05/19 04:37:26;;;;;;;21.07;13.23;;;;;;;;;;5002047;28;20053;-74
2022/05/19 04:39:51;;;;;;;22.33;12.75;;;;;;;;;;5003324;28;20708;-74
2022/05/19 04:42:16;;;;;;;18.60;12.52;;;;;;;;;;5002999;28;20040;-74
2022/05/19 04:44:41;;;;;;;21.02;12.00;;;;;;;;;;5002773;28;20030;-73
2022/05/19 04:47:06;;;;;;;22.58;12.77;;;;;;;;;;5009459;28;20601;-74
2022/05/19 04:49:32;;;;;;;18.63;13.20;;;;;;;;;;5008379;28;20022;-74
2022/05/19 04:51:57;;;;;;;16.73;12.27;;;;;;;;;;5008473;28;20465;-74
2022/05/19 04:54:22;;;;;;;22.83;13.17;;;;;;;;;;5003189;28;20792;-74
2022/05/19 04:56:47;;;;;;;20.63;11.73;;;;;;;;;;5003729;28;20025;-74
2022/05/19 04:59:15;;;;;;;17.55;12.00;;;;;;;;;;4999313;28;20278;-75
2022/05/19 05:01:45;;;;;;;16.65;10.63;;;;;;;;;;5005335;28;20053;-73
2022/05/19 05:04:10;;;;;;;17.92;10.70;;;;;;;;;;5007359;28;20025;-73
2022/05/19 05:06:36;;;;;;;10.65;8.07;;;;;;;;;;4999129;28;20354;-74
2022/05/19 05:09:01;;;;;;;14.70;7.37;;;;;;;;;;5001323;28;20030;-74
2022/05/19 05:11:27;;;;;;;13.50;8.85;;;;;;;;;;5005728;28;20026;-75
2022/05/19 05:13:52;;;;;;;13.10;9.18;;;;;;;;;;5002357;28;20073;-75
2022/05/19 05:16:17;;;;;;;11.50;7.68;;;;;;;;;;5002286;28;20037;-75
2022/05/19 05:18:42;;;;;;;12.40;8.95;;;;;;;;;;5002613;28;20084;-74
2022/05/19 05:21:08;;;;;;;14.03;8.77;;;;;;;;;;5008205;28;20029;-74
2022/05/19 05:23:33;;;;;;;14.73;8.35;;;;;;;;;;5006426;28;20026;-75
2022/05/19 05:25:59;;;;;;;12.47;8.57;;;;;;;;;;5005746;28;20040;-75
2022/05/19 05:28:24;;;;;;;10.65;7.82;;;;;;;;;;5009438;28;20029;-75
2022/05/19 05:30:51;;;;;;;8.50;7.27;;;;;;;;;;5004995;28;20095;-75
2022/05/19 05:33:16;;;;;;;12.07;7.40;;;;;;;;;;5006196;28;20272;-75
2022/05/19 05:35:41;;;;;;;10.77;7.47;;;;;;;;;;5002992;28;20025;-74
2022/05/19 05:38:07;;;;;;;11.93;7.15;;;;;;;;;;5005680;28;20052;-74
2022/05/19 05:40:32;;;;;;;11.93;7.40;;;;;;;;;;4993762;28;20036;-77
2022/05/19 05:43:03;;;;;;;11.87;7.07;;;;;;;;;;4997147;28;20073;-76
2022/05/19 05:45:28;;;;;;;11.18;7.13;;;;;;;;;;5002179;28;20322;-77
2022/05/19 05:47:53;;;;;;;11.90;7.03;;;;;;;;;;5002334;28;20113;-78
2022/05/19 05:50:18;;;;;;;10.43;6.13;;;;;;;;;;5004431;28;20081;-77
2022/05/19 05:52:44;;;;;;;7.53;5.65;;;;;;;;;;5003634;28;20121;-78
2022/05/19 05:55:09;;;;;;;12.63;5.80;;;;;;;;;;4997491;28;20029;-77
2022/05/19 05:57:34;;;;;;;8.52;5.10;;;;;;;;;;5007301;28;20030;-79
2022/05/19 06:00:01;;;;;;;8.07;5.47;;;;;;;;;;5007199;28;20025;-78
2022/05/19 06:02:26;;;;;;;9.90;4.55;;;;;;;;;;5000433;28;20710;-78
2022/05/19 06:04:51;;;;;;;6.60;4.40;;;;;;;;;;5002919;28;20527;-78
2022/05/19 06:07:17;;;;;;;7.50;4.63;;;;;;;;;;5008486;28;20097;-78
2022/05/19 06:09:43;;;;;;;7.55;4.22;;;;;;;;;;5000793;28;20022;-78
2022/05/19 06:12:08;;;;;;;7.18;5.15;;;;;;;;;;5006088;28;20018;-78
2022/05/19 06:14:34;;;;;;;10.82;5.10;;;;;;;;;;5005441;28;20527;-78
2022/05/19 06:16:59;;;;;;;13.25;5.43;;;;;;;;;;4999639;28;20407;-78
2022/05/19 06:19:24;;;;;;;8.60;5.85;;;;;;;;;;5007572;28;20196;-77
2022/05/19 06:21:49;;;;;;;8.00;4.60;;;;;;;;;;5005527;28;20034;-76
2022/05/19 06:24:14;;;;;;;5.90;4.80;;;;;;;;;;5002568;28;20303;-76
2022/05/19 06:26:40;;;;;;;9.52;6.20;;;;;;;;;;5001527;28;20358;-77
2022/05/19 06:29:06;;;;;;;14.30;5.57;;;;;;;;;;5005385;28;20025;-76
2022/05/19 06:31:31;;;;;;;7.75;5.28;;;;;;;;;;5001219;28;20511;-77
2022/05/19 06:33:58;;;;;;;8.93;5.95;;;;;;;;;;5005052;28;20381;-78
2022/05/19 06:36:23;;;;;;;14.98;5.75;;;;;;;;;;4997506;28;20025;-76
2022/05/19 06:38:48;;;;;;;10.25;6.45;;;;;;;;;;4999185;28;20037;-75
2022/05/19 06:43:57;;;;;;;13.00;7.65;;;;;;;;;;5000451;28;20033;-78
2022/05/19 06:46:23;;;;;;;15.17;7.90;;;;;;;;;;4997601;28;20033;-78
2022/05/19 06:48:48;;;;;;;10.63;7.85;;;;;;;;;;5001452;28;20571;-75
2022/05/19 06:51:13;;;;;;;9.87;6.73;;;;;;;;;;4996468;28;20053;-78
2022/05/19 06:53:39;;;;;;;10.50;6.93;;;;;;;;;;5004209;28;20030;-76
2022/05/19 06:56:04;;;;;;;7.75;5.30;;;;;;;;;;5001502;28;20125;-77
2022/05/19 06:58:29;;;;;;;10.90;6.23;;;;;;;;;;4998768;28;20033;-77
2022/05/19 07:00:54;;;;;;;7.32;5.80;;;;;;;;;;5000930;28;20286;-78
2022/05/19 07:03:19;;;;;;;11.00;5.93;;;;;;;;;;4999475;28;20511;-77
2022/05/19 07:05:45;;;;;;;11.57;6.93;;;;;;;;;;4998525;28;20033;-78
2022/05/19 07:08:11;;;;;;;9.98;6.40;;;;;;;;;;4997808;28;20125;-78
2022/05/19 07:10:36;;;;;;;17.15;8.95;;;;;;;;;;5000313;28;20396;-78
2022/05/19 07:13:01;;;;;;;13.23;10.33;;;;;;;;;;5002082;28;20452;-76
2022/05/19 07:15:30;;;;;;;14.07;10.70;;;;;;;;;;4995789;28;20302;-77
2022/05/19 07:17:55;;;;;;;14.48;9.50;;;;;;;;;;4998079;28;20026;-76
2022/05/19 07:23:05;;;;;;;16.95;9.90;;;;;;;;;;5000725;28;20161;-78
2022/05/19 07:25:30;;;;;;;17.02;10.57;;;;;;;;;;5001215;28;20037;-77
2022/05/19 07:27:55;;;;;;;15.27;9.97;;;;;;;;;;5002710;28;20025;-77
2022/05/19 07:30:21;;;;;;;17.00;10.68;;;;;;;;;;5003967;28;20033;-77
2022/05/19 07:32:47;;;;;;;20.92;11.85;;;;;;;;;;4994507;28;20029;-77
2022/05/19 07:35:14;;;;;;;19.42;12.75;;;;;;;;;;4997544;28;20104;-78
2022/05/19 07:37:39;;;;;;;16.90;10.85;;;;;;;;;;5002589;28;20166;-75
2022/05/19 07:40:05;;;;;;;15.27;11.90;;;;;;;;;;5006121;28;20022;-78
2022/05/19 07:42:30;;;;;;;16.33;11.30;;;;;;;;;;5000019;28;20029;-76
2022/05/19 07:44:55;;;;;;;19.23;12.55;;;;;;;;;;5002433;28;20116;-77
2022/05/19 07:47:20;;;;;;;15.88;11.27;;;;;;;;;;5000918;28;20025;-76
2022/05/19 07:49:46;;;;;;;16.23;11.45;;;;;;;;;;5003291;28;20022;-76
2022/05/19 07:52:11;;;;;;;19.17;11.93;;;;;;;;;;5005398;28;20034;-78
2022/05/19 07:54:37;;;;;;;17.10;11.68;;;;;;;;;;4998408;28;20033;-76
2022/05/19 07:57:03;;;;;;;18.50;10.88;;;;;;;;;;5000913;28;20033;-76
2022/05/19 07:59:29;;;;;;;23.77;12.35;;;;;;;;;;5002749;28;20152;-76
2022/05/19 08:01:55;;;;;;;17.10;12.07;;;;;;;;;;5001407;28;20836;-78
2022/05/19 08:04:21;;;;;;;18.10;12.50;;;;;;;;;;4998865;28;20029;-77
2022/05/19 08:06:47;;;;;;;19.92;13.88;;;;;;;;;;5004488;28;20022;-80
2022/05/19 08:11:56;;;;;;;24.35;14.75;;;;;;;;;;5002447;28;20515;-77
2022/05/19 08:17:07;;;;;;;23.98;14.32;;;;;;;;;;4998419;28;20069;-75
2022/05/19 08:19:32;;;;;;;18.77;13.52;;;;;;;;;;5004979;28;20034;-76
2022/05/19 08:21:57;;;;;;;19.02;13.10;;;;;;;;;;5001049;28;20022;-78
2022/05/19 08:24:24;;;;;;;23.48;14.45;;;;;;;;;;4998467;28;20120;-78
2022/05/19 08:26:49;;;;;;;24.23;14.93;;;;;;;;;;5003412;28;20029;-78
2022/05/19 08:29:18;;;;;;;21.50;13.80;;;;;;;;;;5003096;28;20048;-78
2022/05/19 08:31:43;;;;;;;22.17;15.95;;;;;;;;;;5003390;28;20439;-80
2022/05/19 08:34:09;;;;;;;23.08;14.32;;;;;;;;;;5002334;28;20017;-75
2022/05/19 08:36:35;;;;;;;19.63;13.40;;;;;;;;;;5001912;28;20365;-77
2022/05/19 08:39:00;;;;;;;20.88;13.18;;;;;;;;;;5002367;28;20022;-77
2022/05/19 08:41:40;;;;;;;17.85;12.45;;;;;;;;;;5006216;28;20037;-77
2022/05/19 08:44:08;;;;;;;16.02;12.52;;;;;;;;;;5007375;28;20045;-75
2022/05/19 08:46:38;;;;;;;16.65;11.13;;;;;;;;;;4996149;28;20492;-77
2022/05/19 08:49:06;;;;;;;16.55;12.00;;;;;;;;;;5006536;28;20122;-77
2022/05/19 08:51:36;;;;;;;16.30;10.57;;;;;;;;;;5005228;28;20427;-77
2022/05/19 08:54:09;;;;;;;14.73;11.02;;;;;;;;;;5006093;28;20396;-78
2022/05/19 08:56:39;;;;;;;16.65;10.98;;;;;;;;;;5005201;28;20045;-78
2022/05/19 08:59:23;;;;;;;13.30;9.48;;;;;;;;;;5005057;28;20045;-76
2022/05/19 09:01:48;;;;;;;10.65;8.77;;;;;;;;;;5004054;28;20033;-75
2022/05/19 09:04:19;;;;;;;10.70;7.67;;;;;;;;;;4995960;28;20030;-76
2022/05/19 09:09:57;;;;;;;10.40;7.68;;;;;;;;;;4988392;28;20551;-72
2022/05/19 09:12:23;;;;;;;8.60;7.70;;;;;;;;;;5003162;28;20468;-78
2022/05/19 09:14:49;;;;;;;10.88;7.40;;;;;;;;;;5004546;28;20030;-75
2022/05/19 09:17:14;;;;;;;12.65;8.20;;;;;;;;;;4999910;28;20021;-76
2022/05/19 09:19:45;;;;;;;12.48;7.70;;;;;;;;;;5004377;28;20018;-76
2022/05/19 09:22:13;;;;;;;11.20;7.82;;;;;;;;;;5000426;28;20472;-75
2022/05/19 09:24:39;;;;;;;10.82;7.80;;;;;;;;;;5001771;28;20034;-76
2022/05/19 09:27:04;;;;;;;11.98;7.13;;;;;;;;;;5010151;28;20482;-76
2022/05/19 09:29:29;;;;;;;10.40;6.57;;;;;;;;;;5001309;28;20030;-73
2022/05/19 09:32:02;;;;;;;13.60;7.30;;;;;;;;;;4998886;28;20036;-73
2022/05/19 09:34:28;;;;;;;8.75;7.15;;;;;;;;;;5003685;28;20022;-74
2022/05/19 09:36:54;;;;;;;10.88;7.00;;;;;;;;;;5009141;28;20052;-75
2022/05/19 09:39:20;;;;;;;12.32;6.90;;;;;;;;;;5006294;28;20025;-74
2022/05/19 09:41:47;;;;;;;17.05;7.20;;;;;;;;;;5008013;28;20033;-73
2022/05/19 09:44:15;;;;;;;7.50;5.88;;;;;;;;;;5005303;28;20050;-73
2022/05/19 09:46:42;;;;;;;7.65;6.03;;;;;;;;;;5002728;28;20065;-73
2022/05/19 09:49:17;;;;;;;7.28;5.80;;;;;;;;;;5006876;28;20152;-74
2022/05/19 09:51:43;;;;;;;8.02;6.15;;;;;;;;;;5006786;28;20088;-73
2022/05/19 09:54:12;;;;;;;5.68;5.18;;;;;;;;;;5005631;28;20037;-73
2022/05/19 09:56:43;;;;;;;9.90;5.65;;;;;;;;;;5007465;28;20038;-74
2022/05/19 09:59:16;;;;;;;8.45;5.75;;;;;;;;;;5004191;28;20018;-74
2022/05/19 10:01:45;;;;;;;7.20;5.30;;;;;;;;;;5005168;28;20037;-77
2022/05/19 10:04:25;;;;;;;8.82;6.10;;;;;;;;;;5003762;28;20032;-72
2022/05/19 10:06:52;;;;;;;8.98;6.00;;;;;;;;;;5002426;28;20029;-75
2022/05/19 10:09:29;;;;;;;7.43;6.03;;;;;;;;;;5003180;28;20156;-74
2022/05/19 10:12:01;;;;;;;7.35;5.93;;;;;;;;;;5000505;28;20046;-73
2022/05/19 10:14:27;;;;;;;6.80;6.13;;;;;;;;;;4998444;28;20477;-74
2022/05/19 10:17:25;;;;;;;10.38;6.07;;;;;;;;;;5000203;28;20026;-73
2022/05/19 10:20:06;;;;;;;7.35;6.15;;;;;;;;;;4980708;28;20357;-74
2022/05/19 10:22:31;;;;;;;7.05;5.80;;;;;;;;;;4992888;28;20435;-73
2022/05/19 10:25:09;;;;;;;7.72;6.10;;;;;;;;;;5003761;28;20575;-74
2022/05/19 10:31:03;;;;;;;7.53;6.13;;;;;;;;;;5003972;28;20052;-73
2022/05/19 10:33:48;;;;;;;8.82;5.93;;;;;;;;;;4979941;28;20026;-74
2022/05/19 10:36:16;;;;;;;11.60;6.85;;;;;;;;;;5003171;28;20034;-73
2022/05/19 10:38:42;;;;;;;8.55;5.85;;;;;;;;;;5006557;28;20017;-73
2022/05/19 10:41:16;;;;;;;7.43;6.13;;;;;;;;;;5006768;28;20038;-74
2022/05/19 10:43:47;;;;;;;8.32;6.70;;;;;;;;;;5004282;28;20022;-73
2022/05/19 10:46:14;;;;;;;6.78;6.05;;;;;;;;;;5003515;28;20030;-72
2022/05/19 10:48:52;;;;;;;9.30;6.20;;;;;;;;;;5004143;28;20029;-73
2022/05/19 10:51:26;;;;;;;8.20;6.05;;;;;;;;;;5006439;28;20022;-74
2022/05/19 10:53:59;;;;;;;9.38;5.72;;;;;;;;;;5005244;28;20017;-74
2022/05/19 10:56:31;;;;;;;10.88;6.68;;;;;;;;;;5003810;28;20025;-74
2022/05/19 10:59:03;;;;;;;10.00;5.80;;;;;;;;;;4999746;28;20026;-74
2022/05/19 11:01:48;;;;;;;9.73;5.55;;;;;;;;;;5003527;28;20043;-74
2022/05/19 11:04:24;;;;;;;9.48;5.95;;;;;;;;;;5002470;28;20781;-74
2022/05/19 11:07:08;;;;;;;9.38;5.75;;;;;;;;;;5004942;28;20379;-74
2022/05/19 11:09:45;;;;;;;7.25;5.70;;;;;;;;;;4998090;28;20444;-73
2022/05/19 11:12:29;;;;;;;15.32;5.15;;;;;;;;;;5005051;28;20018;-72
2022/05/19 11:15:14;;;;;;;12.15;5.82;;;;;;;;;;5000505;28;20061;-72
2022/05/19 11:18:01;;;;;;;8.55;5.68;;;;;;;;;;5002469;28;20017;-73
2022/05/19 11:20:37;;;;;;;9.65;5.10;;;;;;;;;;5001490;28;20022;-73
2022/05/19 11:23:07;;;;;;;9.27;5.32;;;;;;;;;;5005845;28;20022;-74
2022/05/19 11:28:38;;;;;;;5.32;4.55;;;;;;;;;;5008638;28;20162;-74
2022/05/19 11:31:15;;;;;;;6.60;5.38;;;;;;;;;;5006345;28;20028;-74
2022/05/19 11:33:41;;;;;;;10.88;5.57;;;;;;;;;;5003453;28;20203;-74
2022/05/19 11:36:10;;;;;;;8.88;5.15;;;;;;;;;;5001488;28;20080;-74
2022/05/19 11:38:41;;;;;;;4.85;4.43;;;;;;;;;;5006328;28;20037;-74
2022/05/19 11:41:21;;;;;;;8.80;5.30;;;;;;;;;;5005803;28;20033;-74
2022/05/19 11:43:58;;;;;;;6.65;4.70;;;;;;;;;;5001027;28;20048;-74
2022/05/19 11:46:29;;;;;;;8.27;5.18;;;;;;;;;;5002411;28;20104;-73
2022/05/19 11:57:45;;;;;;;8.73;4.95;;;;;;;;;;4992416;28;20021;-74
2022/05/19 12:00:12;;;;;;;7.97;5.00;;;;;;;;;;5004604;28;20034;-74
2022/05/19 12:02:48;;;;;;;9.43;5.47;;;;;;;;;;5004472;28;20064;-74
2022/05/19 12:05:40;;;;;;;12.65;6.63;;;;;;;;;;5000434;28;20412;-74
2022/05/19 12:08:10;;;;;;;22.58;4.32;;;;;;;;;;5003441;28;20041;-71
2022/05/19 12:10:37;;;;;;;23.83;3.72;;;;;;;;;;5008359;28;20392;-77
2022/05/19 12:13:03;;;;;;;14.65;2.50;;;;;;;;;;5004990;28;20018;-76
2022/05/19 12:15:37;;;;;;;19.17;3.28;;;;;;;;;;5004633;28;20034;-73
2022/05/19 12:18:10;;;;;;;9.57;2.45;;;;;;;;;;5003960;28;20114;-77
2022/05/19 12:20:38;;;;;;;12.02;2.67;;;;;;;;;;5007031;28;20026;-76
2022/05/19 12:23:10;;;;;;;9.20;2.30;;;;;;;;;;5010041;28;20135;-73
2022/05/19 12:25:37;;;;;;;4.88;2.25;;;;;;;;;;5006910;28;20349;-78
2022/05/19 12:28:25;;;;;;;5.72;2.40;;;;;;;;;;5013053;28;20033;-77
2022/05/19 12:33:56;;;;;;;7.43;3.03;;;;;;;;;;5004564;28;20040;-74
2022/05/19 12:36:31;;;;;;;8.27;3.42;;;;;;;;;;5004972;28;20025;-76
2022/05/19 12:39:22;;;;;;;6.68;3.30;;;;;;;;;;5008172;28;20018;-73
2022/05/19 12:41:48;;;;;;;9.38;3.28;;;;;;;;;;5002883;28;20044;-74
2022/05/19 12:44:27;;;;;;;11.45;3.58;;;;;;;;;;5007962;28;20451;-73
2022/05/19 12:47:03;;;;;;;10.48;3.40;;;;;;;;;;5002726;28;20090;-73
2022/05/19 12:49:29;;;;;;;5.13;2.75;;;;;;;;;;5003982;28;20038;-72
2022/05/19 12:51:54;;;;;;;9.95;3.90;;;;;;;;;;5007905;28;20033;-73
2022/05/19 12:54:20;;;;;;;4.45;3.50;;;;;;;;;;5007502;28;20029;-72
2022/05/19 12:56:46;;;;;;;6.55;3.20;;;;;;;;;;5004773;28;20029;-72
2022/05/19 12:59:31;;;;;;;6.18;4.25;;;;;;;;;;5003957;28;20029;-72
2022/05/19 13:02:01;;;;;;;6.20;4.38;;;;;;;;;;5006424;28;20018;-73
2022/05/19 13:04:28;;;;;;;13.75;5.78;;;;;;;;;;5004264;28;20365;-73
2022/05/19 13:06:59;;;;;;;16.58;7.18;;;;;;;;;;5005993;28;20030;-73
2022/05/19 13:09:28;;;;;;;14.55;7.28;;;;;;;;;;5008083;28;20029;-74
2022/05/19 13:11:57;;;;;;;12.43;8.20;;;;;;;;;;5008083;28;20030;-72
2022/05/19 13:14:34;;;;;;;15.38;8.85;;;;;;;;;;5004216;28;20032;-73
2022/05/19 13:16:59;;;;;;;18.02;10.52;;;;;;;;;;4999881;28;20061;-73
2022/05/19 13:19:26;;;;;;;19.25;12.75;;;;;;;;;;5008156;28;20625;-73
2022/05/19 13:21:55;;;;;;;20.20;11.68;;;;;;;;;;5008612;28;20101;-72
2022/05/19 13:24:20;;;;;;;22.48;11.45;;;;;;;;;;4999869;28;20133;-73
2022/05/19 13:30:20;;;;;;;22.15;12.75;;;;;;;;;;5005355;28;20457;-73
2022/05/19 13:32:23;;;;;;;48.33;20.92;;;;;;;;;;5006004;28;20142;-73
2022/05/19 13:34:50;;;;;;;51.40;22.55;;;;;;;;;;5004302;28;20057;-74
2022/05/19 13:37:32;;;;;;;41.13;19.75;;;;;;;;;;5007153;28;20403;-74
2022/05/19 13:40:10;;;;;;;24.55;14.02;;;;;;;;;;5004983;28;20499;-73
2022/05/19 13:42:35;;;;;;;12.10;8.40;;;;;;;;;;5009391;28;20546;-73
2022/05/19 13:45:00;;;;;;;12.63;7.30;;;;;;;;;;5005328;28;20030;-74
2022/05/19 13:47:28;;;;;;;9.20;5.77;;;;;;;;;;5009507;28;20057;-74
2022/05/19 13:49:55;;;;;;;11.57;8.75;;;;;;;;;;5001908;28;20072;-74
2022/05/19 13:52:21;;;;;;;11.43;8.70;;;;;;;;;;5007221;28;20145;-74
2022/05/19 13:54:47;;;;;;;12.75;8.18;;;;;;;;;;4998162;28;20429;-73
2022/05/19 13:57:20;;;;;;;12.52;7.57;;;;;;;;;;5007196;28;20033;-74
2022/05/19 13:59:47;;;;;;;12.30;8.13;;;;;;;;;;5005797;28;21339;-73
2022/05/19 14:02:15;;;;;;;16.38;9.32;;;;;;;;;;5008469;28;20026;-73
2022/05/19 14:04:42;;;;;;;14.13;8.93;;;;;;;;;;5000344;28;20037;-73
2022/05/19 14:07:08;;;;;;;12.63;8.23;;;;;;;;;;5006816;28;20022;-72
2022/05/19 14:09:43;;;;;;;11.02;7.32;;;;;;;;;;5006177;28;20480;-73
2022/05/19 14:12:19;;;;;;;9.23;7.10;;;;;;;;;;5003991;28;20022;-72
2022/05/19 14:14:48;;;;;;;8.70;6.40;;;;;;;;;;5005215;28;20318;-72
2022/05/19 14:17:14;;;;;;;8.70;6.25;;;;;;;;;;5003995;28;20105;-72
2022/05/19 14:19:41;;;;;;;12.65;7.53;;;;;;;;;;5006965;28;20072;-72
2022/05/19 14:22:09;;;;;;;14.88;8.98;;;;;;;;;;5006745;28;20026;-72
2022/05/19 14:24:35;;;;;;;11.93;7.28;;;;;;;;;;5003360;28;20148;-72
2022/05/19 14:27:00;;;;;;;13.17;6.73;;;;;;;;;;5003734;28;20046;-73
2022/05/19 14:29:32;;;;;;;7.30;5.15;;;;;;;;;;5007511;28;20342;-73
2022/05/19 14:32:00;;;;;;;12.43;4.75;;;;;;;;;;5007620;28;20527;-73
2022/05/19 14:34:38;;;;;;;9.32;5.00;;;;;;;;;;5004964;28;20026;-73
2022/05/19 14:37:26;;;;;;;8.43;4.97;;;;;;;;;;5006881;28;20537;-73
2022/05/19 14:39:53;;;;;;;7.13;3.90;;;;;;;;;;5005550;28;20481;-74
2022/05/19 14:45:09;;;;;;;6.57;4.57;;;;;;;;;;5000774;28;20033;-74
2022/05/19 14:47:36;;;;;;;9.15;4.30;;;;;;;;;;5001501;28;20044;-74
2022/05/19 14:50:05;;;;;;;7.82;5.28;;;;;;;;;;5006110;28;20106;-73
2022/05/19 14:52:32;;;;;;;5.78;5.18;;;;;;;;;;5005755;28;20025;-73
2022/05/19 14:54:59;;;;;;;9.90;5.15;;;;;;;;;;5002199;28;20458;-72
2022/05/19 14:57:27;;;;;;;7.82;4.90;;;;;;;;;;5006405;28;20376;-73
2022/05/19 14:59:55;;;;;;;5.70;4.65;;;;;;;;;;5007630;28;20044;-73
2022/05/19 15:02:20;;;;;;;5.03;4.43;;;;;;;;;;5002617;28;20532;-73
2022/05/19 15:04:45;;;;;;;5.90;4.75;;;;;;;;;;5002061;28;20488;-73
2022/05/19 15:07:31;;;;;;;6.20;4.13;;;;;;;;;;5011383;28;20061;-73
2022/05/19 15:09:56;;;;;;;5.45;4.60;;;;;;;;;;4998081;28;20042;-73
2022/05/19 15:12:23;;;;;;;9.77;5.25;;;;;;;;;;5006657;28;20048;-74
2022/05/19 15:14:49;;;;;;;7.97;5.25;;;;;;;;;;5003294;28;20041;-73